Time,TemperatureF,DewpointF,PressureIn,WindDirection,WindDirectionDegrees,WindSpeedMPH,WindSpeedGustMPH,Humidity,HourlyPrecipIn,Conditions,Clouds,dailyrainin,SoftwareType,DateUTC
2013-09-08 00:01:00,59.9,57.9,29.90,SSW,212,0.0,0.0,93,0.00,RA,,0.00,WeatherDisplay:10.37,2013-09-08 04:01:00,
2013-09-08 00:02:00,59.9,57.9,29.90,SSW,212,0.0,0.0,93,0.00,RA,,0.00,WeatherDisplay:10.37,2013-09-08 04:02:00,
2013-09-08 00:07:00,60.0,58.0,29.90,SSW,212,0.0,0.0,93,0.00,RA,,0.00,WeatherDisplay:10.37,2013-09-08 04:07:00,
2013-09-08 00:12:00,60.0,58.0,29.90,SSW,212,0.0,0.0,93,0.00,CLR,,0.00,WeatherDisplay:10.37,2013-09-08 04:12:00,
2013-09-08 00:17:00,60.0,58.0,29.89,SSW,212,1.1,2.0,93,0.00,CLR,,0.00,WeatherDisplay:10.37,2013-09-08 04:17:00,
2013-09-08 00:22:00,60.0,58.0,29.89,SSW,212,0.3,1.2,93,0.00,CLR,,0.00,WeatherDisplay:10.37,2013-09-08 04:22:00,
2013-09-08 00:27:00,60.0,58.0,29.90,SSW,212,0.0,0.0,93,0.00,CLR,,0.00,WeatherDisplay:10.37,2013-09-08 04:27:00,
2013-09-08 00:32:00,60.0,58.0,29.90,North,360,1.7,2.3,93,0.00,CLR,,0.00,WeatherDisplay:10.37,2013-09-08 04:32:00,
2013-09-08 00:37:00,60.0,58.0,29.90,NW,312,2.4,4.6,93,0.00,CLR,,0.00,WeatherDisplay:10.37,2013-09-08 04:37:00,
2013-09-08 00:42:00,60.0,58.0,29.90,NW,312,0.4,1.2,93,0.00,CLR,,0.00,WeatherDisplay:10.37,2013-09-08 04:42:00,
2013-09-08 00:47:00,60.2,58.2,29.90,NW,313,1.1,2.3,93,0.00,CLR,,0.00,WeatherDisplay:10.37,2013-09-08 04:47:00,
2013-09-08 00:52:00,60.1,58.1,29.90,NW,313,0.0,0.0,93,0.00,CLR,,0.00,WeatherDisplay:10.37,2013-09-08 04:52:00,
2013-09-08 00:57:00,60.1,58.1,29.90,NW,313,0.0,0.0,93,0.00,CLR,,0.00,WeatherDisplay:10.37,2013-09-08 04:57:00,
2013-09-08 01:02:00,60.1,58.1,29.90,NW,313,0.0,0.0,93,0.00,CLR,,0.00,WeatherDisplay:10.37,2013-09-08 05:02:00,
2013-09-08 01:07:00,60.1,58.1,29.89,NW,313,0.0,0.0,93,0.00,CLR,,0.00,WeatherDisplay:10.37,2013-09-08 05:07:00,
2013-09-08 01:12:00,60.1,58.1,29.89,NW,313,0.0,0.0,93,0.00,CLR,,0.00,WeatherDisplay:10.37,2013-09-08 05:12:00,
2013-09-08 01:17:00,60.1,58.1,29.89,NW,313,0.3,1.2,93,0.00,CLR,,0.00,WeatherDisplay:10.37,2013-09-08 05:17:00,
2013-09-08 01:22:00,60.2,58.2,29.89,NW,313,0.0,0.0,93,0.00,CLR,,0.00,WeatherDisplay:10.37,2013-09-08 05:22:00,
2013-09-08 01:27:00,60.2,58.2,29.89,NW,313,0.0,0.0,93,0.00,CLR,,0.00,WeatherDisplay:10.37,2013-09-08 05:27:00,
2013-09-08 01:32:00,60.2,58.2,29.88,NW,313,0.0,0.0,93,0.00,CLR,,0.00,WeatherDisplay:10.37,2013-09-08 05:32:00,
2013-09-08 01:37:00,60.2,58.2,29.89,NW,313,0.0,0.0,93,0.00,CLR,,0.00,WeatherDisplay:10.37,2013-09-08 05:37:00,
2013-09-08 01:42:00,60.3,58.3,29.88,NW,313,0.1,1.2,93,0.00,CLR,,0.00,WeatherDisplay:10.37,2013-09-08 05:42:00,
2013-09-08 01:47:00,60.3,58.3,29.88,NW,313,0.0,0.0,93,0.00,CLR,,0.00,WeatherDisplay:10.37,2013-09-08 05:47:00,
2013-09-08 01:52:00,60.4,58.4,29.88,NW,313,1.1,2.3,93,0.00,CLR,,0.00,WeatherDisplay:10.37,2013-09-08 05:52:00,
2013-09-08 01:57:00,60.5,58.5,29.88,NW,313,0.0,0.0,93,0.00,CLR,,0.00,WeatherDisplay:10.37,2013-09-08 05:57:00,
2013-09-08 02:02:00,60.5,58.5,29.88,NW,313,0.0,0.0,93,0.00,CLR,,0.00,WeatherDisplay:10.37,2013-09-08 06:02:00,
2013-09-08 02:07:00,60.5,58.5,29.88,NW,313,0.0,0.0,93,0.00,CLR,,0.00,WeatherDisplay:10.37,2013-09-08 06:07:00,
2013-09-08 02:12:00,60.5,58.5,29.87,NW,313,0.0,0.0,93,0.00,CLR,,0.00,WeatherDisplay:10.37,2013-09-08 06:12:00,
2013-09-08 02:17:00,60.6,58.6,29.87,NW,313,0.4,1.2,93,0.00,CLR,,0.00,WeatherDisplay:10.37,2013-09-08 06:17:00,
2013-09-08 02:22:00,60.6,58.6,29.87,NW,313,0.0,0.0,93,0.00,CLR,,0.00,WeatherDisplay:10.37,2013-09-08 06:22:00,
2013-09-08 02:27:00,60.6,58.6,29.87,NW,313,0.0,0.0,93,0.00,CLR,,0.00,WeatherDisplay:10.37,2013-09-08 06:27:00,
2013-09-08 02:32:00,60.6,58.6,29.88,NW,313,0.0,0.0,93,0.00,CLR,,0.00,WeatherDisplay:10.37,2013-09-08 06:32:00,
2013-09-08 02:37:00,60.7,58.7,29.87,NW,313,0.0,0.0,93,0.00,CLR,,0.00,WeatherDisplay:10.37,2013-09-08 06:37:00,
2013-09-08 02:42:00,60.7,58.7,29.87,NW,313,0.0,0.0,93,0.00,CLR,,0.00,WeatherDisplay:10.37,2013-09-08 06:42:00,
2013-09-08 02:47:00,60.7,58.7,29.87,NW,313,0.0,0.0,93,0.00,CLR,,0.00,WeatherDisplay:10.37,2013-09-08 06:47:00,
2013-09-08 02:52:00,60.8,58.8,29.87,NW,313,0.0,0.0,93,0.00,CLR,,0.00,WeatherDisplay:10.37,2013-09-08 06:52:00,
2013-09-08 02:57:00,60.8,58.8,29.87,NW,313,0.0,0.0,93,0.00,CLR,,0.00,WeatherDisplay:10.37,2013-09-08 06:57:00,
2013-09-08 03:02:00,60.8,58.8,29.87,NW,313,0.0,0.0,93,0.00,CLR,,0.00,WeatherDisplay:10.37,2013-09-08 07:02:00,
2013-09-08 03:07:00,60.8,58.8,29.86,NW,313,0.0,0.0,93,0.00,CLR,,0.00,WeatherDisplay:10.37,2013-09-08 07:07:00,
2013-09-08 03:12:00,60.8,58.8,29.86,NW,313,0.0,0.0,93,0.00,CLR,,0.00,WeatherDisplay:10.37,2013-09-08 07:12:00,
2013-09-08 03:17:00,60.8,58.8,29.86,NW,313,0.0,0.0,93,0.00,CLR,,0.00,WeatherDisplay:10.37,2013-09-08 07:17:00,
2013-09-08 03:22:00,60.8,58.8,29.85,NW,313,0.0,0.0,93,0.00,CLR,,0.00,WeatherDisplay:10.37,2013-09-08 07:22:00,
2013-09-08 03:27:00,60.7,58.7,29.85,NW,313,0.0,0.0,93,0.00,CLR,,0.00,WeatherDisplay:10.37,2013-09-08 07:27:00,
2013-09-08 03:32:00,60.5,58.5,29.85,NW,313,1.2,2.3,93,0.00,CLR,,0.00,WeatherDisplay:10.37,2013-09-08 07:32:00,
2013-09-08 03:37:00,60.4,58.4,29.85,NW,313,1.0,2.3,93,0.00,CLR,,0.00,WeatherDisplay:10.37,2013-09-08 07:37:00,
2013-09-08 03:42:00,60.0,58.0,29.85,NW,313,0.1,1.2,93,0.00,CLR,,0.00,WeatherDisplay:10.37,2013-09-08 07:42:00,
2013-09-08 03:47:00,59.8,57.8,29.85,NW,313,0.0,0.0,93,0.00,CLR,,0.00,WeatherDisplay:10.37,2013-09-08 07:47:00,
2013-09-08 03:52:00,59.4,57.4,29.85,NW,313,0.0,0.0,93,0.00,CLR,,0.00,WeatherDisplay:10.37,2013-09-08 07:52:00,
2013-09-08 03:57:00,59.2,57.2,29.85,NW,313,0.0,0.0,93,0.00,CLR,,0.00,WeatherDisplay:10.37,2013-09-08 07:57:00,
2013-09-08 04:02:00,58.9,56.9,29.85,NW,313,0.0,0.0,93,0.00,CLR,,0.00,WeatherDisplay:10.37,2013-09-08 08:02:00,
2013-09-08 04:07:00,58.6,56.6,29.85,NW,313,0.0,0.0,93,0.00,CLR,,0.00,WeatherDisplay:10.37,2013-09-08 08:07:00,
2013-09-08 04:12:00,58.2,56.2,29.85,NW,313,0.0,0.0,93,0.00,CLR,,0.00,WeatherDisplay:10.37,2013-09-08 08:12:00,
2013-09-08 04:17:00,58.0,56.0,29.85,NW,313,0.0,0.0,93,0.00,CLR,,0.00,WeatherDisplay:10.37,2013-09-08 08:17:00,
2013-09-08 04:22:00,57.8,55.8,29.84,NW,313,0.0,0.0,93,0.00,CLR,,0.00,WeatherDisplay:10.37,2013-09-08 08:22:00,
2013-09-08 04:27:00,57.5,55.5,29.84,NW,313,0.0,1.0,93,0.00,CLR,,0.00,WeatherDisplay:10.37,2013-09-08 08:27:00,
2013-09-08 04:32:00,57.3,55.3,29.84,NW,313,0.3,1.2,93,0.00,CLR,,0.00,WeatherDisplay:10.37,2013-09-08 08:32:00,
2013-09-08 04:37:00,57.2,55.2,29.84,NW,313,0.1,1.2,93,0.00,CLR,,0.00,WeatherDisplay:10.37,2013-09-08 08:37:00,
2013-09-08 04:42:00,57.1,55.1,29.84,NW,313,0.0,0.0,93,0.00,CLR,,0.00,WeatherDisplay:10.37,2013-09-08 08:42:00,
2013-09-08 04:47:00,57.0,55.0,29.84,NW,313,0.0,0.0,93,0.00,CLR,,0.00,WeatherDisplay:10.37,2013-09-08 08:47:00,
2013-09-08 04:52:00,56.9,54.9,29.84,NW,313,0.0,0.0,93,0.00,CLR,,0.00,WeatherDisplay:10.37,2013-09-08 08:52:00,
2013-09-08 04:57:00,56.8,54.8,29.84,NW,313,0.0,0.0,93,0.00,CLR,,0.00,WeatherDisplay:10.37,2013-09-08 08:57:00,
2013-09-08 05:02:00,56.6,54.9,29.83,NW,313,0.0,0.0,94,0.00,CLR,,0.00,WeatherDisplay:10.37,2013-09-08 09:02:00,
2013-09-08 05:08:00,56.6,54.9,29.83,NW,313,0.0,0.0,94,0.00,CLR,,0.00,WeatherDisplay:10.37,2013-09-08 09:08:00,
2013-09-08 05:13:00,56.4,54.4,29.84,NW,313,1.3,2.3,93,0.00,CLR,,0.00,WeatherDisplay:10.37,2013-09-08 09:13:00,
2013-09-08 05:18:00,56.4,54.4,29.84,NW,313,0.5,2.3,93,0.00,CLR,,0.00,WeatherDisplay:10.37,2013-09-08 09:18:00,
2013-09-08 05:23:00,56.4,54.4,29.84,NW,313,0.0,0.0,93,0.00,CLR,,0.00,WeatherDisplay:10.37,2013-09-08 09:23:00,
2013-09-08 05:28:00,56.5,54.5,29.84,NW,313,0.0,0.0,93,0.00,CLR,,0.00,WeatherDisplay:10.37,2013-09-08 09:28:00,
2013-09-08 05:33:00,56.5,54.5,29.84,NW,313,0.1,0.0,93,0.00,CLR,,0.00,WeatherDisplay:10.37,2013-09-08 09:33:00,
2013-09-08 05:38:00,56.4,54.4,29.84,NW,313,0.0,0.0,93,0.00,CLR,,0.00,WeatherDisplay:10.37,2013-09-08 09:38:00,
2013-09-08 05:43:00,56.3,54.3,29.84,NW,313,0.0,0.0,93,0.00,CLR,,0.00,WeatherDisplay:10.37,2013-09-08 09:43:00,
2013-09-08 05:48:00,56.2,54.2,29.84,NW,313,0.0,0.0,93,0.00,CLR,,0.00,WeatherDisplay:10.37,2013-09-08 09:48:00,
2013-09-08 05:53:00,56.2,54.2,29.84,NW,313,0.0,0.0,93,0.00,CLR,,0.00,WeatherDisplay:10.37,2013-09-08 09:53:00,
2013-09-08 05:58:00,56.2,54.2,29.83,NW,313,0.0,0.0,93,0.00,CLR,,0.00,WeatherDisplay:10.37,2013-09-08 09:58:00,
2013-09-08 06:03:00,56.4,54.4,29.83,NW,313,0.0,0.0,93,0.00,CLR,,0.00,WeatherDisplay:10.37,2013-09-08 10:03:00,
2013-09-08 06:08:00,56.4,54.4,29.83,NW,313,0.0,0.0,93,0.00,CLR,,0.00,WeatherDisplay:10.37,2013-09-08 10:08:00,
2013-09-08 06:13:00,56.3,54.3,29.82,NW,313,0.0,0.0,93,0.00,CLR,,0.00,WeatherDisplay:10.37,2013-09-08 10:13:00,
2013-09-08 06:18:00,56.2,54.2,29.82,NW,313,0.0,0.0,93,0.00,CLR,,0.00,WeatherDisplay:10.37,2013-09-08 10:18:00,
2013-09-08 06:23:00,56.1,54.1,29.83,NW,313,1.3,3.5,93,0.00,CLR,,0.00,WeatherDisplay:10.37,2013-09-08 10:23:00,
2013-09-08 06:28:00,56.1,54.1,29.83,WNW,291,1.0,1.2,93,0.00,CLR,,0.00,WeatherDisplay:10.37,2013-09-08 10:28:00,
2013-09-08 06:33:00,56.3,54.3,29.83,West,265,0.9,3.5,93,0.00,CLR,,0.00,WeatherDisplay:10.37,2013-09-08 10:33:00,
2013-09-08 06:38:00,56.5,54.5,29.83,West,265,0.2,1.2,93,0.00,CLR,,0.00,WeatherDisplay:10.37,2013-09-08 10:38:00,
2013-09-08 06:43:00,56.6,54.6,29.83,NNE,23,2.5,3.5,93,0.00,CLR,,0.00,WeatherDisplay:10.37,2013-09-08 10:43:00,
2013-09-08 06:48:00,56.8,54.8,29.84,North,11,1.9,3.5,93,0.00,CLR,,0.00,WeatherDisplay:10.37,2013-09-08 10:48:00,
2013-09-08 06:53:00,56.8,54.8,29.85,North,11,0.6,1.2,93,0.00,CLR,,0.00,WeatherDisplay:10.37,2013-09-08 10:53:00,
2013-09-08 06:58:00,56.8,54.8,29.85,North,11,0.0,0.0,93,0.00,CLR,,0.00,WeatherDisplay:10.37,2013-09-08 10:58:00,
2013-09-08 07:03:00,56.8,54.8,29.85,North,11,0.4,1.2,93,0.00,CLR,,0.00,WeatherDisplay:10.37,2013-09-08 11:03:00,
2013-09-08 07:08:00,56.9,54.9,29.85,North,11,0.0,0.0,93,0.00,CLR,,0.00,WeatherDisplay:10.37,2013-09-08 11:08:00,
2013-09-08 07:13:00,57.1,55.1,29.85,North,11,0.0,1.2,93,0.00,CLR,,0.00,WeatherDisplay:10.37,2013-09-08 11:13:00,
2013-09-08 07:18:00,57.4,55.4,29.85,North,11,0.0,0.0,93,0.00,CLR,,0.00,WeatherDisplay:10.37,2013-09-08 11:18:00,
2013-09-08 07:23:00,57.8,55.8,29.85,North,5,0.0,0.0,93,0.00,CLR,,0.00,WeatherDisplay:10.37,2013-09-08 11:23:00,
2013-09-08 07:28:00,58.1,56.1,29.85,North,5,0.2,0.0,93,0.00,CLR,,0.00,WeatherDisplay:10.37,2013-09-08 11:28:00,
2013-09-08 07:33:00,58.4,56.4,29.85,North,5,1.8,2.3,93,0.00,CLR,,0.00,WeatherDisplay:10.37,2013-09-08 11:33:00,
2013-09-08 07:38:00,58.7,56.7,29.85,North,5,1.9,3.5,93,0.00,CLR,,0.00,WeatherDisplay:10.37,2013-09-08 11:38:00,
2013-09-08 07:43:00,59.2,57.2,29.85,North,5,0.0,0.0,93,0.00,CLR,,0.00,WeatherDisplay:10.37,2013-09-08 11:43:00,
2013-09-08 07:48:00,59.6,57.6,29.84,North,5,0.0,0.0,93,0.00,CLR,,0.00,WeatherDisplay:10.37,2013-09-08 11:48:00,
2013-09-08 07:53:00,60.1,58.1,29.84,North,5,0.1,1.2,93,0.00,CLR,,0.00,WeatherDisplay:10.37,2013-09-08 11:53:00,
2013-09-08 07:58:00,60.6,58.6,29.84,NE,42,0.2,2.3,93,0.00,CLR,,0.00,WeatherDisplay:10.37,2013-09-08 11:58:00,
2013-09-08 08:03:00,60.8,58.8,29.84,NE,46,0.7,2.3,93,0.00,CLR,,0.00,WeatherDisplay:10.37,2013-09-08 12:03:00,
2013-09-08 08:08:00,61.1,59.1,29.84,NE,46,0.1,1.0,93,0.00,CLR,,0.00,WeatherDisplay:10.37,2013-09-08 12:08:00,
2013-09-08 08:13:00,61.5,59.5,29.83,NE,51,0.0,1.2,93,0.00,CLR,,0.00,WeatherDisplay:10.37,2013-09-08 12:13:00,
2013-09-08 08:18:00,62.0,60.0,29.83,NE,51,0.0,1.2,93,0.00,CLR,,0.00,WeatherDisplay:10.37,2013-09-08 12:18:00,
2013-09-08 08:23:00,62.5,60.7,29.84,West,273,0.3,1.2,94,0.00,CLR,,0.00,WeatherDisplay:10.37,2013-09-08 12:23:00,
2013-09-08 08:28:00,63.4,61.3,29.83,WSW,242,1.9,5.8,93,0.00,CLR,,0.00,WeatherDisplay:10.37,2013-09-08 12:28:00,
2013-09-08 08:33:00,64.3,61.6,29.84,WNW,283,1.6,4.6,91,0.00,CLR,,0.00,WeatherDisplay:10.37,2013-09-08 12:33:00,
2013-09-08 08:38:00,65.1,62.1,29.84,WNW,294,1.2,3.5,90,0.00,CLR,,0.00,WeatherDisplay:10.37,2013-09-08 12:38:00,
2013-09-08 08:43:00,65.8,62.1,29.83,WSW,246,0.8,2.3,88,0.00,CLR,,0.00,WeatherDisplay:10.37,2013-09-08 12:43:00,
2013-09-08 08:48:00,66.5,62.8,29.84,WNW,284,0.1,1.2,88,0.00,CLR,,0.00,WeatherDisplay:10.37,2013-09-08 12:48:00,
2013-09-08 08:53:00,67.0,62.7,29.84,WNW,300,0.0,1.2,86,0.00,CLR,,0.00,WeatherDisplay:10.37,2013-09-08 12:53:00,
2013-09-08 08:58:00,67.7,63.0,29.84,SSE,163,1.4,3.5,85,0.00,CLR,,0.00,WeatherDisplay:10.37,2013-09-08 12:58:00,
2013-09-08 09:03:00,68.0,63.0,29.84,SSW,204,1.0,2.3,84,0.00,CLR,,0.00,WeatherDisplay:10.37,2013-09-08 13:03:00,
2013-09-08 09:08:00,68.4,63.4,29.83,SSW,196,1.9,4.6,84,0.00,CLR,,0.00,WeatherDisplay:10.37,2013-09-08 13:08:00,
2013-09-08 09:13:00,69.0,63.6,29.84,WSW,242,4.1,5.8,83,0.00,CLR,,0.00,WeatherDisplay:10.37,2013-09-08 13:13:00,
2013-09-08 09:18:00,69.7,63.6,29.84,WSW,255,5.2,6.9,81,0.00,CLR,,0.00,WeatherDisplay:10.37,2013-09-08 13:18:00,
2013-09-08 09:23:00,70.3,63.8,29.84,WSW,250,3.3,3.5,80,0.00,CLR,,0.00,WeatherDisplay:10.37,2013-09-08 13:23:00,
2013-09-08 09:28:00,70.6,63.4,29.84,WNW,302,2.8,9.2,78,0.00,CLR,,0.00,WeatherDisplay:10.37,2013-09-08 13:28:00,
2013-09-08 09:33:00,71.0,63.8,29.84,West,272,4.7,8.1,78,0.00,CLR,,0.00,WeatherDisplay:10.37,2013-09-08 13:33:00,
2013-09-08 09:38:00,71.6,64.7,29.84,NW,313,3.6,6.0,79,0.00,CLR,,0.00,WeatherDisplay:10.37,2013-09-08 13:38:00,
2013-09-08 09:43:00,72.4,64.8,29.84,NW,304,0.5,3.5,77,0.00,CLR,,0.00,WeatherDisplay:10.37,2013-09-08 13:43:00,
2013-09-08 09:48:00,72.6,64.2,29.84,West,259,5.4,9.2,75,0.00,CLR,,0.00,WeatherDisplay:10.37,2013-09-08 13:48:00,
2013-09-08 09:53:00,72.4,64.0,29.84,West,261,2.7,8.1,75,0.00,CLR,,0.00,WeatherDisplay:10.37,2013-09-08 13:53:00,
2013-09-08 09:58:00,72.2,63.8,29.84,West,267,2.4,5.8,75,0.00,CLR,,0.00,WeatherDisplay:10.37,2013-09-08 13:58:00,
2013-09-08 10:03:00,72.2,63.8,29.84,WNW,296,3.1,4.6,75,0.00,CLR,,0.00,WeatherDisplay:10.37,2013-09-08 14:03:00,
2013-09-08 10:08:00,72.2,64.2,29.84,West,259,4.3,4.6,76,0.00,CLR,,0.00,WeatherDisplay:10.37,2013-09-08 14:08:00,
2013-09-08 10:13:00,72.7,64.7,29.84,NW,321,4.6,6.0,76,0.00,CLR,,0.00,WeatherDisplay:10.37,2013-09-08 14:13:00,
2013-09-08 10:18:00,72.9,64.5,29.84,NW,307,3.5,4.6,75,0.00,CLR,,0.00,WeatherDisplay:10.37,2013-09-08 14:18:00,
2013-09-08 10:23:00,72.8,64.4,29.84,West,270,3.9,5.8,75,0.00,CLR,,0.00,WeatherDisplay:10.37,2013-09-08 14:23:00,
2013-09-08 10:28:00,72.2,63.8,29.84,WSW,242,4.2,5.8,75,0.00,CLR,,0.00,WeatherDisplay:10.37,2013-09-08 14:28:00,
2013-09-08 10:33:00,72.0,64.8,29.84,SW,230,0.7,2.3,78,0.00,CLR,,0.00,WeatherDisplay:10.37,2013-09-08 14:33:00,
2013-09-08 10:38:00,72.0,64.8,29.84,West,268,1.9,3.5,78,0.00,CLR,,0.00,WeatherDisplay:10.37,2013-09-08 14:38:00,
2013-09-08 10:43:00,72.2,64.6,29.84,WSW,242,2.3,3.5,77,0.00,CLR,,0.00,WeatherDisplay:10.37,2013-09-08 14:43:00,
2013-09-08 10:48:00,72.6,65.0,29.84,WSW,239,0.2,3.5,77,0.00,CLR,,0.00,WeatherDisplay:10.37,2013-09-08 14:48:00,
2013-09-08 10:53:00,73.0,65.4,29.84,WSW,246,2.2,3.5,77,0.00,CLR,,0.00,WeatherDisplay:10.37,2013-09-08 14:53:00,
2013-09-08 10:58:00,73.8,66.5,29.84,NW,307,1.9,2.3,78,0.00,CLR,,0.00,WeatherDisplay:10.37,2013-09-08 14:58:00,
2013-09-08 11:03:00,74.6,66.5,29.84,NNW,330,0.7,2.3,76,0.00,CLR,,0.00,WeatherDisplay:10.37,2013-09-08 15:03:00,
2013-09-08 11:08:00,75.0,66.5,29.84,NNW,344,4.3,6.9,75,0.00,CLR,,0.00,WeatherDisplay:10.37,2013-09-08 15:08:00,
2013-09-08 11:13:00,75.5,67.0,29.83,North,360,2.9,4.6,75,0.00,CLR,,0.00,WeatherDisplay:10.37,2013-09-08 15:13:00,
2013-09-08 11:18:00,76.1,66.4,29.83,North,360,3.2,4.6,72,0.00,CLR,,0.00,WeatherDisplay:10.37,2013-09-08 15:18:00,
2013-09-08 11:23:00,76.6,66.9,29.83,North,360,6.6,9.2,72,0.00,CLR,,0.00,WeatherDisplay:10.37,2013-09-08 15:23:00,
2013-09-08 11:28:00,76.9,66.8,29.83,North,360,4.9,5.8,71,0.00,CLR,,0.00,WeatherDisplay:10.37,2013-09-08 15:28:00,
2013-09-08 11:33:00,77.4,67.3,29.84,North,360,5.3,8.1,71,0.00,CLR,,0.00,WeatherDisplay:10.37,2013-09-08 15:33:00,
2013-09-08 11:38:00,77.8,67.6,29.83,North,360,6.2,9.2,71,0.00,CLR,,0.00,WeatherDisplay:10.37,2013-09-08 15:38:00,
2013-09-08 11:43:00,78.1,67.5,29.84,North,360,4.5,6.9,70,0.00,CLR,,0.00,WeatherDisplay:10.37,2013-09-08 15:43:00,
2013-09-08 11:48:00,78.3,67.3,29.84,North,360,4.6,8.1,69,0.00,CLR,,0.00,WeatherDisplay:10.37,2013-09-08 15:48:00,
2013-09-08 11:53:00,78.0,67.0,29.84,North,360,4.9,6.9,69,0.00,CLR,,0.00,WeatherDisplay:10.37,2013-09-08 15:53:00,
2013-09-08 11:58:00,77.0,66.9,29.84,North,360,6.1,8.1,71,0.00,CLR,,0.00,WeatherDisplay:10.37,2013-09-08 15:58:00,
2013-09-08 12:03:00,77.1,67.0,29.84,North,360,8.3,11.5,71,0.00,CLR,,0.00,WeatherDisplay:10.37,2013-09-08 16:03:00,
2013-09-08 12:08:00,77.8,67.2,29.84,North,360,8.4,12.7,70,0.00,CLR,,0.00,WeatherDisplay:10.37,2013-09-08 16:08:00,
2013-09-08 12:13:00,77.6,66.2,29.84,North,360,6.7,10.4,68,0.00,CLR,,0.00,WeatherDisplay:10.37,2013-09-08 16:13:00,
2013-09-08 12:18:00,76.7,65.8,29.84,North,360,6.7,10.4,69,0.00,CLR,,0.00,WeatherDisplay:10.37,2013-09-08 16:18:00,
2013-09-08 12:23:00,76.1,66.4,29.84,North,360,6.0,9.2,72,0.00,CLR,,0.00,WeatherDisplay:10.37,2013-09-08 16:23:00,
2013-09-08 12:28:00,76.5,67.2,29.84,North,360,7.4,15.0,73,0.00,CLR,,0.00,WeatherDisplay:10.37,2013-09-08 16:28:00,
2013-09-08 12:33:00,77.1,66.6,29.84,North,360,8.2,13.8,70,0.00,CLR,,0.00,WeatherDisplay:10.37,2013-09-08 16:33:00,
2013-09-08 12:38:00,77.3,66.7,29.84,North,360,10.1,18.4,70,0.00,CLR,,0.00,WeatherDisplay:10.37,2013-09-08 16:38:00,
2013-09-08 12:43:00,77.9,66.9,29.84,North,360,11.6,17.3,69,0.00,CLR,,0.00,WeatherDisplay:10.37,2013-09-08 16:43:00,
2013-09-08 12:48:00,78.5,67.5,29.84,North,360,9.3,12.0,69,0.00,CLR,,0.00,WeatherDisplay:10.37,2013-09-08 16:48:00,
2013-09-08 12:53:00,78.6,66.7,29.84,North,360,6.6,11.5,67,0.00,CLR,,0.00,WeatherDisplay:10.37,2013-09-08 16:53:00,
2013-09-08 12:58:00,78.5,65.8,29.84,North,360,11.0,13.8,65,0.00,CLR,,0.00,WeatherDisplay:10.37,2013-09-08 16:58:00,
2013-09-08 13:03:00,78.5,66.2,29.83,North,360,9.0,16.1,66,0.00,CLR,,0.00,WeatherDisplay:10.37,2013-09-08 17:03:00,
2013-09-08 13:08:00,78.9,66.1,29.84,North,351,11.1,17.3,65,0.00,CLR,,0.00,WeatherDisplay:10.37,2013-09-08 17:08:00,
2013-09-08 13:13:00,78.4,66.1,29.84,North,360,8.6,11.5,66,0.00,CLR,,0.00,WeatherDisplay:10.37,2013-09-08 17:13:00,
2013-09-08 13:18:00,78.6,65.4,29.84,North,360,10.5,12.7,64,0.00,CLR,,0.00,WeatherDisplay:10.37,2013-09-08 17:18:00,
2013-09-08 13:23:00,78.8,64.7,29.84,North,360,8.9,11.5,62,0.00,CLR,,0.00,WeatherDisplay:10.37,2013-09-08 17:23:00,
2013-09-08 13:28:00,79.0,64.4,29.84,North,360,7.0,11.5,61,0.00,CLR,,0.00,WeatherDisplay:10.37,2013-09-08 17:28:00,
2013-09-08 13:33:00,78.9,64.8,29.84,North,360,8.4,12.7,62,0.00,CLR,,0.00,WeatherDisplay:10.37,2013-09-08 17:33:00,
2013-09-08 13:38:00,78.9,64.8,29.84,North,360,6.0,11.5,62,0.00,CLR,,0.00,WeatherDisplay:10.37,2013-09-08 17:38:00,
2013-09-08 13:43:00,78.9,63.8,29.84,North,360,9.4,12.7,60,0.00,CLR,,0.00,WeatherDisplay:10.37,2013-09-08 17:43:00,
2013-09-08 13:48:00,79.2,64.6,29.84,North,360,8.0,11.5,61,0.00,CLR,,0.00,WeatherDisplay:10.37,2013-09-08 17:48:00,
2013-09-08 13:53:00,79.4,64.3,29.84,North,360,7.4,12.7,60,0.00,CLR,,0.00,WeatherDisplay:10.37,2013-09-08 17:53:00,
2013-09-08 13:58:00,79.6,64.5,29.84,North,360,10.0,15.0,60,0.00,CLR,,0.00,WeatherDisplay:10.37,2013-09-08 17:58:00,
2013-09-08 14:03:00,79.4,63.3,29.84,North,360,7.8,11.5,58,0.00,CLR,,0.00,WeatherDisplay:10.37,2013-09-08 18:03:00,
2013-09-08 14:08:00,79.3,66.1,29.85,North,360,6.3,8.1,64,0.00,CLR,,0.00,WeatherDisplay:10.37,2013-09-08 18:08:00,
2013-09-08 14:13:00,79.5,63.4,29.85,North,360,5.9,10.4,58,0.00,CLR,,0.00,WeatherDisplay:10.37,2013-09-08 18:13:00,
2013-09-08 14:18:00,79.2,63.1,29.85,North,360,7.7,10.4,58,0.00,CLR,,0.00,WeatherDisplay:10.37,2013-09-08 18:18:00,
2013-09-08 14:23:00,79.7,64.6,29.85,North,360,8.0,11.5,60,0.00,CLR,,0.00,WeatherDisplay:10.37,2013-09-08 18:23:00,
2013-09-08 14:28:00,80.7,64.1,29.85,North,360,7.8,11.5,57,0.00,CLR,,0.00,WeatherDisplay:10.37,2013-09-08 18:28:00,
2013-09-08 14:33:00,81.0,63.8,29.85,North,360,7.8,11.5,56,0.00,CLR,,0.00,WeatherDisplay:10.37,2013-09-08 18:33:00,
2013-09-08 14:38:00,80.3,62.7,29.85,North,360,7.9,11.5,55,0.00,CLR,,0.00,WeatherDisplay:10.37,2013-09-08 18:38:00,
2013-09-08 14:43:00,79.5,63.4,29.85,North,360,5.0,10.4,58,0.00,CLR,,0.00,WeatherDisplay:10.37,2013-09-08 18:43:00,
2013-09-08 14:48:00,79.5,62.4,29.85,North,360,6.6,11.5,56,0.00,CLR,,0.00,WeatherDisplay:10.37,2013-09-08 18:48:00,
2013-09-08 14:53:00,78.9,61.9,29.85,North,360,7.7,11.5,56,0.00,CLR,,0.00,WeatherDisplay:10.37,2013-09-08 18:53:00,
2013-09-08 14:58:00,78.3,61.8,29.85,North,360,6.3,10.4,57,0.00,CLR,,0.00,WeatherDisplay:10.37,2013-09-08 18:58:00,
2013-09-08 15:03:00,78.8,62.3,29.85,North,360,9.2,11.5,57,0.00,CLR,,0.00,WeatherDisplay:10.37,2013-09-08 19:03:00,
2013-09-08 15:08:00,79.7,62.1,29.85,North,360,9.3,11.5,55,0.00,CLR,,0.00,WeatherDisplay:10.37,2013-09-08 19:08:00,
2013-09-08 15:13:00,80.4,61.2,29.85,North,355,7.7,11.5,52,0.00,CLR,,0.00,WeatherDisplay:10.37,2013-09-08 19:13:00,
2013-09-08 15:18:00,80.9,63.7,29.85,North,360,6.1,11.5,56,0.00,CLR,,0.00,WeatherDisplay:10.37,2013-09-08 19:18:00,
2013-09-08 15:23:00,81.1,61.8,29.85,North,360,10.3,12.7,52,0.00,CLR,,0.00,WeatherDisplay:10.37,2013-09-08 19:23:00,
2013-09-08 15:28:00,80.9,61.1,29.85,North,360,9.1,12.7,51,0.00,CLR,,0.00,WeatherDisplay:10.37,2013-09-08 19:28:00,
2013-09-08 15:33:00,80.5,60.7,29.85,North,360,8.5,13.8,51,0.00,CLR,,0.00,WeatherDisplay:10.37,2013-09-08 19:33:00,
2013-09-08 15:38:00,80.3,62.1,29.86,North,360,6.8,9.2,54,0.00,CLR,,0.00,WeatherDisplay:10.37,2013-09-08 19:38:00,
2013-09-08 15:43:00,80.7,62.0,29.86,North,360,6.3,9.2,53,0.00,CLR,,0.00,WeatherDisplay:10.37,2013-09-08 19:43:00,
2013-09-08 15:48:00,81.1,60.7,29.86,North,360,5.6,12.7,50,0.00,CLR,,0.00,WeatherDisplay:10.37,2013-09-08 19:48:00,
2013-09-08 15:53:00,80.9,60.5,29.86,North,360,8.9,12.7,50,0.00,CLR,,0.00,WeatherDisplay:10.37,2013-09-08 19:53:00,
2013-09-08 15:58:00,80.5,60.1,29.86,North,360,8.4,12.7,50,0.00,CLR,,0.00,WeatherDisplay:10.37,2013-09-08 19:58:00,
2013-09-08 16:03:00,80.5,60.1,29.86,North,360,8.0,11.5,50,0.00,CLR,,0.00,WeatherDisplay:10.37,2013-09-08 20:03:00,
2013-09-08 16:09:00,80.4,61.2,29.86,North,360,9.4,13.8,52,0.00,CLR,,0.00,WeatherDisplay:10.37,2013-09-08 20:09:00,
2013-09-08 16:14:00,80.3,60.0,29.86,North,360,8.1,11.5,50,0.00,CLR,,0.00,WeatherDisplay:10.37,2013-09-08 20:14:00,
2013-09-08 16:19:00,80.1,59.8,29.86,North,360,8.7,11.5,50,0.00,CLR,,0.00,WeatherDisplay:10.37,2013-09-08 20:19:00,
2013-09-08 16:24:00,79.9,60.2,29.87,North,360,8.6,12.7,51,0.00,CLR,,0.00,WeatherDisplay:10.37,2013-09-08 20:24:00,
2013-09-08 16:29:00,79.6,58.8,29.87,North,360,8.1,13.8,49,0.00,CLR,,0.00,WeatherDisplay:10.37,2013-09-08 20:29:00,
2013-09-08 16:34:00,79.3,59.0,29.87,North,360,6.6,10.4,50,0.00,CLR,,0.00,WeatherDisplay:10.37,2013-09-08 20:34:00,
2013-09-08 16:39:00,79.4,59.7,29.88,North,360,3.1,9.2,51,0.00,CLR,,0.00,WeatherDisplay:10.37,2013-09-08 20:39:00,
2013-09-08 16:44:00,79.6,58.8,29.88,North,360,6.0,9.2,49,0.00,CLR,,0.00,WeatherDisplay:10.37,2013-09-08 20:44:00,
2013-09-08 16:49:00,79.0,57.6,29.88,North,360,5.5,8.1,48,0.00,CLR,,0.00,WeatherDisplay:10.37,2013-09-08 20:49:00,
2013-09-08 16:54:00,77.8,57.1,29.88,North,360,5.6,9.2,49,0.00,CLR,,0.00,WeatherDisplay:10.37,2013-09-08 20:54:00,
2013-09-08 16:59:00,77.3,57.8,29.88,North,360,5.1,8.1,51,0.00,CLR,,0.00,WeatherDisplay:10.37,2013-09-08 20:59:00,
2013-09-08 17:04:00,77.6,57.5,29.89,North,360,5.5,6.9,50,0.00,CLR,,0.00,WeatherDisplay:10.37,2013-09-08 21:04:00,
2013-09-08 17:09:00,77.9,56.0,29.89,North,360,7.1,9.2,47,0.00,CLR,,0.00,WeatherDisplay:10.37,2013-09-08 21:09:00,
2013-09-08 17:14:00,77.6,55.8,29.89,North,360,5.6,9.2,47,0.00,CLR,,0.00,WeatherDisplay:10.37,2013-09-08 21:14:00,
2013-09-08 17:19:00,77.5,56.8,29.89,North,360,5.4,8.1,49,0.00,CLR,,0.00,WeatherDisplay:10.37,2013-09-08 21:19:00,
2013-09-08 17:24:00,77.5,53.2,29.89,North,360,7.0,8.1,43,0.00,CLR,,0.00,WeatherDisplay:10.37,2013-09-08 21:24:00,
2013-09-08 17:29:00,77.4,53.1,29.90,North,360,5.7,11.5,43,0.00,CLR,,0.00,WeatherDisplay:10.37,2013-09-08 21:29:00,
2013-09-08 17:34:00,77.0,52.1,29.90,North,360,8.2,12.0,42,0.00,CLR,,0.00,WeatherDisplay:10.37,2013-09-08 21:34:00,
2013-09-08 17:39:00,76.6,49.8,29.90,North,360,2.7,5.8,39,0.00,CLR,,0.00,WeatherDisplay:10.37,2013-09-08 21:39:00,
2013-09-08 17:44:00,76.4,51.6,29.90,North,360,3.9,4.6,42,0.00,CLR,,0.00,WeatherDisplay:10.37,2013-09-08 21:44:00,
2013-09-08 17:49:00,76.4,51.6,29.91,North,360,5.1,8.1,42,0.00,CLR,,0.00,WeatherDisplay:10.37,2013-09-08 21:49:00,
2013-09-08 17:54:00,75.9,50.5,29.91,North,360,6.8,9.2,41,0.00,CLR,,0.00,WeatherDisplay:10.37,2013-09-08 21:54:00,
2013-09-08 17:59:00,75.4,50.1,29.92,North,360,5.3,13.8,41,0.00,CLR,,0.00,WeatherDisplay:10.37,2013-09-08 21:59:00,
2013-09-08 18:04:00,75.1,49.1,29.92,North,360,6.0,9.2,40,0.00,CLR,,0.00,WeatherDisplay:10.37,2013-09-08 22:04:00,
2013-09-08 18:09:00,74.9,50.3,29.92,North,360,5.9,9.2,42,0.00,CLR,,0.00,WeatherDisplay:10.37,2013-09-08 22:09:00,
2013-09-08 18:14:00,74.8,50.2,29.92,North,360,4.8,6.9,42,0.00,CLR,,0.00,WeatherDisplay:10.37,2013-09-08 22:14:00,
2013-09-08 18:19:00,74.5,49.2,29.92,North,360,4.1,8.1,41,0.00,CLR,,0.00,WeatherDisplay:10.37,2013-09-08 22:19:00,
2013-09-08 18:24:00,74.5,50.5,29.92,North,360,4.3,6.9,43,0.00,CLR,,0.00,WeatherDisplay:10.37,2013-09-08 22:24:00,
2013-09-08 18:29:00,74.4,50.4,29.92,North,360,5.1,6.0,43,0.00,CLR,,0.00,WeatherDisplay:10.37,2013-09-08 22:29:00,
2013-09-08 18:34:00,73.9,51.2,29.93,North,360,4.8,5.8,45,0.00,CLR,,0.00,WeatherDisplay:10.37,2013-09-08 22:34:00,
2013-09-08 18:39:00,73.7,51.0,29.93,North,360,2.5,4.6,45,0.00,CLR,,0.00,WeatherDisplay:10.37,2013-09-08 22:39:00,
2013-09-08 18:44:00,73.5,51.4,29.93,North,360,4.1,5.8,46,0.00,CLR,,0.00,WeatherDisplay:10.37,2013-09-08 22:44:00,
2013-09-08 18:49:00,73.1,51.7,29.93,North,360,2.0,3.5,47,0.00,CLR,,0.00,WeatherDisplay:10.37,2013-09-08 22:49:00,
2013-09-08 18:54:00,72.4,51.6,29.93,North,360,2.6,3.5,48,0.00,CLR,,0.00,WeatherDisplay:10.37,2013-09-08 22:54:00,
2013-09-08 18:59:00,71.4,51.2,29.94,North,360,0.7,2.3,49,0.00,CLR,,0.00,WeatherDisplay:10.37,2013-09-08 22:59:00,
2013-09-08 19:04:00,70.5,51.0,29.94,North,360,0.4,2.3,50,0.00,CLR,,0.00,WeatherDisplay:10.37,2013-09-08 23:04:00,
2013-09-08 19:09:00,69.7,51.8,29.94,North,360,1.2,2.3,53,0.00,CLR,,0.00,WeatherDisplay:10.37,2013-09-08 23:09:00,
2013-09-08 19:14:00,68.6,53.2,29.95,North,360,0.0,0.0,58,0.00,CLR,,0.00,WeatherDisplay:10.37,2013-09-08 23:14:00,
2013-09-08 19:19:00,67.4,54.8,29.95,NW,323,0.0,0.0,64,0.00,CLR,,0.00,WeatherDisplay:10.37,2013-09-08 23:19:00,
2013-09-08 19:24:00,66.3,55.0,29.95,NW,323,0.6,2.3,67,0.00,CLR,,0.00,WeatherDisplay:10.37,2013-09-08 23:24:00,
2013-09-08 19:29:00,65.1,54.7,29.95,NW,323,0.0,1.2,69,0.00,CLR,,0.00,WeatherDisplay:10.37,2013-09-08 23:29:00,
2013-09-08 19:34:00,64.0,54.0,29.96,NNW,346,0.3,2.3,70,0.00,CLR,,0.00,WeatherDisplay:10.37,2013-09-08 23:34:00,
2013-09-08 19:39:00,62.9,53.7,29.96,NNW,346,0.0,0.0,72,0.00,CLR,,0.00,WeatherDisplay:10.37,2013-09-08 23:39:00,
2013-09-08 19:44:00,62.1,53.0,29.96,NNW,346,0.0,0.0,72,0.00,CLR,,0.00,WeatherDisplay:10.37,2013-09-08 23:44:00,
2013-09-08 19:49:00,61.4,53.0,29.96,NNW,346,0.0,1.2,74,0.00,CLR,,0.00,WeatherDisplay:10.37,2013-09-08 23:49:00,
2013-09-08 19:54:00,60.7,53.4,29.97,NNW,346,0.0,0.0,77,0.00,CLR,,0.00,WeatherDisplay:10.37,2013-09-08 23:54:00,
2013-09-08 19:59:00,59.8,53.3,29.97,NNW,346,0.0,0.0,79,0.00,CLR,,0.00,WeatherDisplay:10.37,2013-09-08 23:59:00,
2013-09-08 20:04:00,59.0,53.2,29.97,NNW,346,0.0,0.0,81,0.00,CLR,,0.00,WeatherDisplay:10.37,2013-09-09 00:04:00,
2013-09-08 20:09:00,58.2,52.7,29.98,NNW,346,0.0,0.0,82,0.00,CLR,,0.00,WeatherDisplay:10.37,2013-09-09 00:09:00,
2013-09-08 20:14:00,57.7,52.9,29.98,NNW,346,0.0,0.0,84,0.00,CLR,,0.00,WeatherDisplay:10.37,2013-09-09 00:14:00,
2013-09-08 20:19:00,57.2,52.7,29.98,NNW,346,0.0,0.0,85,0.00,CLR,,0.00,WeatherDisplay:10.37,2013-09-09 00:19:00,
2013-09-08 20:24:00,56.7,52.2,29.99,NNW,346,0.0,0.0,85,0.00,CLR,,0.00,WeatherDisplay:10.37,2013-09-09 00:24:00,
2013-09-08 20:29:00,56.2,52.1,29.99,NNW,346,0.0,0.0,86,0.00,CLR,,0.00,WeatherDisplay:10.37,2013-09-09 00:29:00,
2013-09-08 20:34:00,55.6,51.5,30.00,NNW,346,0.0,0.0,86,0.00,CLR,,0.00,WeatherDisplay:10.37,2013-09-09 00:34:00,
2013-09-08 20:39:00,55.1,51.6,30.00,NNW,346,0.0,0.0,88,0.00,CLR,,0.00,WeatherDisplay:10.37,2013-09-09 00:39:00,
2013-09-08 20:44:00,54.7,51.2,30.00,NNW,346,0.0,0.0,88,0.00,CLR,,0.00,WeatherDisplay:10.37,2013-09-09 00:44:00,
2013-09-08 20:49:00,54.3,50.8,30.01,NNW,346,0.2,2.3,88,0.00,CLR,,0.00,WeatherDisplay:10.37,2013-09-09 00:49:00,
2013-09-08 20:54:00,54.0,51.1,30.01,NNW,346,0.1,0.0,90,0.00,CLR,,0.00,WeatherDisplay:10.37,2013-09-09 00:54:00,
2013-09-08 20:59:00,53.8,50.9,30.01,NNW,346,0.0,0.0,90,0.00,CLR,,0.00,WeatherDisplay:10.37,2013-09-09 00:59:00,
2013-09-08 21:04:00,53.5,50.6,30.01,NNW,346,0.0,0.0,90,0.00,CLR,,0.00,WeatherDisplay:10.37,2013-09-09 01:04:00,
2013-09-08 21:09:00,53.2,50.3,30.02,NNW,346,0.9,1.2,90,0.00,CLR,,0.00,WeatherDisplay:10.37,2013-09-09 01:09:00,
2013-09-08 21:14:00,52.9,50.3,30.02,NW,325,2.9,3.5,91,0.00,CLR,,0.00,WeatherDisplay:10.37,2013-09-09 01:14:00,
2013-09-08 21:19:00,52.7,50.1,30.02,NW,325,0.3,1.2,91,0.00,CLR,,0.00,WeatherDisplay:10.37,2013-09-09 01:19:00,
2013-09-08 21:24:00,52.4,49.8,30.02,NNW,339,0.2,2.3,91,0.00,CLR,,0.00,WeatherDisplay:10.37,2013-09-09 01:24:00,
2013-09-08 21:29:00,52.4,49.3,30.03,North,5,0.8,2.3,89,0.00,CLR,,0.00,WeatherDisplay:10.37,2013-09-09 01:29:00,
2013-09-08 21:34:00,52.6,49.4,30.03,North,5,0.0,1.2,89,0.00,CLR,,0.00,WeatherDisplay:10.37,2013-09-09 01:34:00,
2013-09-08 21:39:00,52.9,50.0,30.03,North,5,0.0,0.0,90,0.00,CLR,,0.00,WeatherDisplay:10.37,2013-09-09 01:39:00,
2013-09-08 21:44:00,52.8,49.9,30.04,North,5,0.0,0.0,90,0.00,CLR,,0.00,WeatherDisplay:10.37,2013-09-09 01:44:00,
2013-09-08 21:49:00,52.6,50.0,30.04,ESE,105,2.0,2.3,91,0.00,CLR,,0.00,WeatherDisplay:10.37,2013-09-09 01:49:00,
2013-09-08 21:54:00,52.5,49.7,30.05,ESE,105,0.0,0.0,90,0.00,CLR,,0.00,WeatherDisplay:10.37,2013-09-09 01:54:00,
2013-09-08 21:59:00,52.3,49.5,30.05,ESE,105,0.2,1.2,90,0.00,CLR,,0.00,WeatherDisplay:10.37,2013-09-09 01:59:00,
2013-09-08 22:04:00,52.1,49.3,30.05,ESE,105,0.8,2.3,90,0.00,CLR,,0.00,WeatherDisplay:10.37,2013-09-09 02:04:00,
2013-09-08 22:09:00,51.8,49.3,30.05,ESE,105,0.0,0.0,91,0.00,CLR,,0.00,WeatherDisplay:10.37,2013-09-09 02:09:00,
2013-09-08 22:14:00,51.5,49.0,30.05,NNW,331,2.0,6.0,91,0.00,,,0.00,weatherlink.com 1.10,2013-09-09 02:14:00,
2013-09-08 22:19:00,51.5,49.3,30.04,NNW,344,2.7,3.5,92,0.00,CLR,,0.00,WeatherDisplay:10.37,2013-09-09 02:19:00,
2013-09-08 22:24:00,51.6,48.8,30.04,NW,324,2.8,3.5,90,0.00,CLR,,0.00,WeatherDisplay:10.37,2013-09-09 02:24:00,
2013-09-08 22:29:00,51.8,48.7,30.04,NW,326,3.0,4.0,89,0.00,CLR,,0.00,WeatherDisplay:10.37,2013-09-09 02:29:00,
2013-09-08 22:34:00,52.6,48.5,30.04,North,355,2.5,4.6,86,0.00,CLR,,0.00,WeatherDisplay:10.37,2013-09-09 02:34:00,
2013-09-08 22:39:00,53.5,48.5,30.05,NNE,21,2.6,3.5,83,0.00,CLR,,0.00,WeatherDisplay:10.37,2013-09-09 02:39:00,
2013-09-08 22:44:00,54.1,48.4,30.05,NE,36,1.9,3.5,81,0.00,CLR,,0.00,WeatherDisplay:10.37,2013-09-09 02:44:00,
2013-09-08 22:49:00,54.7,48.3,30.05,NE,46,0.5,2.3,79,0.00,CLR,,0.00,WeatherDisplay:10.37,2013-09-09 02:49:00,
2013-09-08 22:54:00,54.9,48.5,30.05,North,360,0.6,1.2,79,0.00,CLR,,0.00,WeatherDisplay:10.37,2013-09-09 02:54:00,
2013-09-08 22:59:00,55.0,48.9,30.05,North,360,0.0,0.0,80,0.00,CLR,,0.00,WeatherDisplay:10.37,2013-09-09 02:59:00,
2013-09-08 23:04:00,54.6,49.2,30.05,North,360,1.2,2.3,82,0.00,CLR,,0.00,WeatherDisplay:10.37,2013-09-09 03:04:00,
2013-09-08 23:09:00,54.1,49.1,30.06,North,360,0.0,0.0,83,0.00,CLR,,0.00,WeatherDisplay:10.37,2013-09-09 03:09:00,
2013-09-08 23:14:00,53.4,48.7,30.06,North,360,1.0,2.3,84,0.00,CLR,,0.00,WeatherDisplay:10.37,2013-09-09 03:14:00,
2013-09-08 23:19:00,52.9,48.8,30.06,North,360,0.0,0.0,86,0.00,CLR,,0.00,WeatherDisplay:10.37,2013-09-09 03:19:00,
2013-09-08 23:24:00,52.3,48.2,30.06,North,360,0.0,1.2,86,0.00,CLR,,0.00,WeatherDisplay:10.37,2013-09-09 03:24:00,
2013-09-08 23:29:00,51.8,48.1,30.06,North,360,0.0,0.0,87,0.00,CLR,,0.00,WeatherDisplay:10.37,2013-09-09 03:29:00,
2013-09-08 23:34:00,51.4,47.7,30.06,North,360,0.0,0.0,87,0.00,CLR,,0.00,WeatherDisplay:10.37,2013-09-09 03:34:00,
2013-09-08 23:39:00,50.8,47.4,30.06,North,360,0.0,0.0,88,0.00,CLR,,0.00,WeatherDisplay:10.37,2013-09-09 03:39:00,
2013-09-08 23:44:00,50.4,47.3,30.07,North,360,0.3,1.2,89,0.00,CLR,,0.00,WeatherDisplay:10.37,2013-09-09 03:44:00,
2013-09-08 23:49:00,50.0,47.2,30.07,North,360,0.2,1.2,90,0.00,CLR,,0.00,WeatherDisplay:10.37,2013-09-09 03:49:00,
2013-09-08 23:54:00,49.7,46.9,30.07,North,360,0.0,0.0,90,0.00,CLR,,0.00,WeatherDisplay:10.37,2013-09-09 03:54:00,
2013-09-08 23:59:00,49.4,46.9,30.07,North,360,0.1,1.2,91,0.00,CLR,,0.00,WeatherDisplay:10.37,2013-09-09 03:59:00,